sensor_id;sensor_type;location;lat;lon;timestamp;pressure;altitude;pressure_sealevel;temperature;humidity
18275;BME280;19470;49.322;7.218;2023-03-14T00:02:10;96916.53;;;13.97;100.00
18275;BME280;19470;49.322;7.218;2023-03-14T00:04:37;96909.38;;;14.06;100.00
18275;BME280;19470;49.322;7.218;2023-03-14T00:07:04;96902.75;;;14.35;100.00
18275;BME280;19470;49.322;7.218;2023-03-14T00:09:31;96897.50;;;14.52;100.00
18275;BME280;19470;49.322;7.218;2023-03-14T00:11:57;96891.56;;;14.72;100.00
18275;BME280;19470;49.322;7.218;2023-03-14T00:14:24;96893.38;;;14.46;100.00
18275;BME280;19470;49.322;7.218;2023-03-14T00:16:50;96889.22;;;14.14;100.00
18275;BME280;19470;49.322;7.218;2023-03-14T00:19:17;96891.78;;;14.27;100.00
18275;BME280;19470;49.322;7.218;2023-03-14T00:21:43;96882.25;;;14.44;100.00
18275;BME280;19470;49.322;7.218;2023-03-14T00:24:11;96874.88;;;14.32;100.00
18275;BME280;19470;49.322;7.218;2023-03-14T00:26:38;96884.38;;;14.81;100.00
18275;BME280;19470;49.322;7.218;2023-03-14T00:29:04;96873.56;;;14.21;100.00
18275;BME280;19470;49.322;7.218;2023-03-14T00:31:31;96862.59;;;14.79;100.00
18275;BME280;19470;49.322;7.218;2023-03-14T00:33:57;96855.91;;;14.33;100.00
18275;BME280;19470;49.322;7.218;2023-03-14T00:36:24;96869.06;;;14.39;100.00
18275;BME280;19470;49.322;7.218;2023-03-14T00:38:51;96857.72;;;14.90;100.00
18275;BME280;19470;49.322;7.218;2023-03-14T00:41:21;96863.03;;;14.55;100.00
18275;BME280;19470;49.322;7.218;2023-03-14T00:43:48;96863.06;;;14.73;100.00
18275;BME280;19470;49.322;7.218;2023-03-14T00:46:15;96862.81;;;14.35;100.00
18275;BME280;19470;49.322;7.218;2023-03-14T00:48:41;96858.50;;;14.91;100.00
18275;BME280;19470;49.322;7.218;2023-03-14T00:51:08;96868.38;;;14.55;100.00
18275;BME280;19470;49.322;7.218;2023-03-14T00:53:37;96877.97;;;14.82;100.00
18275;BME280;19470;49.322;7.218;2023-03-14T00:56:05;96876.72;;;14.23;100.00
18275;BME280;19470;49.322;7.218;2023-03-14T00:58:34;96886.09;;;14.69;100.00
18275;BME280;19470;49.322;7.218;2023-03-14T01:01:05;96895.34;;;14.80;100.00
18275;BME280;19470;49.322;7.218;2023-03-14T01:03:32;96892.06;;;14.74;100.00
18275;BME280;19470;49.322;7.218;2023-03-14T01:06:07;96883.31;;;14.34;100.00
18275;BME280;19470;49.322;7.218;2023-03-14T01:08:33;96886.13;;;14.77;100.00
18275;BME280;19470;49.322;7.218;2023-03-14T01:11:05;96884.69;;;14.89;100.00
18275;BME280;19470;49.322;7.218;2023-03-14T01:13:31;96880.78;;;14.77;100.00
18275;BME280;19470;49.322;7.218;2023-03-14T01:16:03;96895.34;;;14.89;100.00
18275;BME280;19470;49.322;7.218;2023-03-14T01:18:30;96883.44;;;14.20;100.00
18275;BME280;19470;49.322;7.218;2023-03-14T01:20:57;96890.50;;;14.25;100.00
18275;BME280;19470;49.322;7.218;2023-03-14T01:23:24;96892.72;;;14.31;100.00
18275;BME280;19470;49.322;7.218;2023-03-14T01:25:50;96892.75;;;14.40;100.00
18275;BME280;19470;49.322;7.218;2023-03-14T01:28:17;96883.44;;;14.20;100.00
18275;BME280;19470;49.322;7.218;2023-03-14T01:30:43;96871.44;;;14.40;100.00
18275;BME280;19470;49.322;7.218;2023-03-14T01:33:11;96873.56;;;14.12;100.00
18275;BME280;19470;49.322;7.218;2023-03-14T01:35:39;96861.59;;;14.41;100.00
18275;BME280;19470;49.322;7.218;2023-03-14T01:38:06;96853.50;;;14.80;100.00
18275;BME280;19470;49.322;7.218;2023-03-14T01:40:32;96854.41;;;14.50;100.00
18275;BME280;19470;49.322;7.218;2023-03-14T01:43:12;96847.84;;;14.56;100.00
18275;BME280;19470;49.322;7.218;2023-03-14T01:46:12;96853.47;;;14.63;100.00
18275;BME280;19470;49.322;7.218;2023-03-14T01:48:45;96845.72;;;14.27;100.00
18275;BME280;19470;49.322;7.218;2023-03-14T01:51:17;96830.66;;;14.14;100.00
18275;BME280;19470;49.322;7.218;2023-03-14T01:53:45;96824.75;;;14.43;100.00
18275;BME280;19470;49.322;7.218;2023-03-14T01:56:13;96828.38;;;14.47;100.00
18275;BME280;19470;49.322;7.218;2023-03-14T01:58:44;96821.16;;;14.47;100.00
18275;BME280;19470;49.322;7.218;2023-03-14T02:01:11;96810.16;;;14.23;100.00
18275;BME280;19470;49.322;7.218;2023-03-14T02:03:44;96804.91;;;14.49;100.00
18275;BME280;19470;49.322;7.218;2023-03-14T02:06:14;96795.06;;;14.49;100.00
18275;BME280;19470;49.322;7.218;2023-03-14T02:08:43;96800.63;;;14.39;100.00
18275;BME280;19470;49.322;7.218;2023-03-14T02:11:13;96792.53;;;14.70;100.00
18275;BME280;19470;49.322;7.218;2023-03-14T02:13:40;96800.84;;;14.60;100.00
18275;BME280;19470;49.322;7.218;2023-03-14T02:16:07;96797.69;;;14.75;100.00
18275;BME280;19470;49.322;7.218;2023-03-14T02:18:34;96789.09;;;14.78;100.00
18275;BME280;19470;49.322;7.218;2023-03-14T02:21:07;96786.09;;;14.71;100.00
18275;BME280;19470;49.322;7.218;2023-03-14T02:23:40;96783.59;;;14.83;100.00
18275;BME280;19470;49.322;7.218;2023-03-14T02:26:11;96787.38;;;14.65;100.00
18275;BME280;19470;49.322;7.218;2023-03-14T02:28:41;96769.63;;;14.43;100.00
18275;BME280;19470;49.322;7.218;2023-03-14T02:31:08;96772.78;;;14.63;100.00
18275;BME280;19470;49.322;7.218;2023-03-14T02:33:35;96771.47;;;14.25;100.00
18275;BME280;19470;49.322;7.218;2023-03-14T02:36:05;96784.22;;;14.46;100.00
18275;BME280;19470;49.322;7.218;2023-03-14T02:38:36;96781.25;;;14.56;100.00
18275;BME280;19470;49.322;7.218;2023-03-14T02:41:05;96772.66;;;14.59;100.00
18275;BME280;19470;49.322;7.218;2023-03-14T02:43:32;96772.16;;;14.48;100.00
18275;BME280;19470;49.322;7.218;2023-03-14T02:46:00;96765.28;;;14.65;100.00
18275;BME280;19470;49.322;7.218;2023-03-14T02:48:30;96763.72;;;14.55;100.00
18275;BME280;19470;49.322;7.218;2023-03-14T02:51:00;96750.84;;;14.92;100.00
18275;BME280;19470;49.322;7.218;2023-03-14T02:53:29;96805.78;;;14.27;100.00
18275;BME280;19470;49.322;7.218;2023-03-14T02:55:56;96755.19;;;14.18;100.00
18275;BME280;19470;49.322;7.218;2023-03-14T02:58:23;96751.44;;;14.19;100.00
18275;BME280;19470;49.322;7.218;2023-03-14T03:00:50;96767.59;;;14.40;100.00
18275;BME280;19470;49.322;7.218;2023-03-14T03:03:18;96761.94;;;14.07;100.00
18275;BME280;19470;49.322;7.218;2023-03-14T03:05:47;96749.28;;;14.21;100.00
18275;BME280;19470;49.322;7.218;2023-03-14T03:08:15;96755.00;;;14.06;100.00
18275;BME280;19470;49.322;7.218;2023-03-14T03:10:42;96762.44;;;14.35;100.00
18275;BME280;19470;49.322;7.218;2023-03-14T03:13:08;96751.84;;;13.87;100.00
18275;BME280;19470;49.322;7.218;2023-03-14T03:15:35;96746.38;;;13.92;100.00
18275;BME280;19470;49.322;7.218;2023-03-14T03:18:01;96746.50;;;13.78;100.00
18275;BME280;19470;49.322;7.218;2023-03-14T03:20:29;96734.22;;;14.43;100.00
18275;BME280;19470;49.322;7.218;2023-03-14T03:22:56;96744.06;;;13.99;100.00
18275;BME280;19470;49.322;7.218;2023-03-14T03:25:22;96724.97;;;14.14;100.00
18275;BME280;19470;49.322;7.218;2023-03-14T03:27:49;96721.84;;;14.29;100.00
18275;BME280;19470;49.322;7.218;2023-03-14T03:30:15;96721.03;;;13.86;100.00
18275;BME280;19470;49.322;7.218;2023-03-14T03:32:42;96724.50;;;14.21;100.00
18275;BME280;19470;49.322;7.218;2023-03-14T03:35:09;96723.31;;;13.61;100.00
18275;BME280;19470;49.322;7.218;2023-03-14T03:37:37;96719.34;;;13.41;100.00
18275;BME280;19470;49.322;7.218;2023-03-14T03:40:05;96723.66;;;13.28;100.00
18275;BME280;19470;49.322;7.218;2023-03-14T03:42:32;96712.81;;;13.56;100.00
18275;BME280;19470;49.322;7.218;2023-03-14T03:45:00;96709.50;;;13.42;100.00
18275;BME280;19470;49.322;7.218;2023-03-14T03:47:26;96712.38;;;13.71;100.00
18275;BME280;19470;49.322;7.218;2023-03-14T03:49:53;96702.81;;;13.62;100.00
18275;BME280;19470;49.322;7.218;2023-03-14T03:52:20;96712.78;;;13.47;100.00
18275;BME280;19470;49.322;7.218;2023-03-14T03:54:48;96711.47;;;13.85;100.00
18275;BME280;19470;49.322;7.218;2023-03-14T03:57:14;96722.06;;;13.67;100.00
18275;BME280;19470;49.322;7.218;2023-03-14T03:59:41;96720.09;;;13.90;100.00
18275;BME280;19470;49.322;7.218;2023-03-14T04:02:07;96709.13;;;13.92;100.00
18275;BME280;19470;49.322;7.218;2023-03-14T04:04:34;96692.66;;;13.72;100.00
18275;BME280;19470;49.322;7.218;2023-03-14T04:07:00;96705.50;;;13.70;100.00
18275;BME280;19470;49.322;7.218;2023-03-14T04:09:27;96687.81;;;13.66;100.00
18275;BME280;19470;49.322;7.218;2023-03-14T04:11:55;96698.34;;;13.97;100.00
18275;BME280;19470;49.322;7.218;2023-03-14T04:14:22;96707.56;;;13.91;100.00
18275;BME280;19470;49.322;7.218;2023-03-14T04:16:48;96695.28;;;13.46;100.00
18275;BME280;19470;49.322;7.218;2023-03-14T04:19:15;96689.94;;;13.38;100.00
18275;BME280;19470;49.322;7.218;2023-03-14T04:21:41;96664.34;;;13.19;100.00
18275;BME280;19470;49.322;7.218;2023-03-14T04:24:10;96679.09;;;13.25;100.00
18275;BME280;19470;49.322;7.218;2023-03-14T04:26:36;96668.13;;;13.84;100.00
18275;BME280;19470;49.322;7.218;2023-03-14T04:29:04;96657.19;;;13.94;100.00
18275;BME280;19470;49.322;7.218;2023-03-14T04:31:30;96716.22;;;13.48;100.00
18275;BME280;19470;49.322;7.218;2023-03-14T04:33:57;96681.97;;;13.38;100.00
18275;BME280;19470;49.322;7.218;2023-03-14T04:36:23;96676.91;;;14.19;100.00
18275;BME280;19470;49.322;7.218;2023-03-14T04:38:50;96704.78;;;13.39;100.00
18275;BME280;19470;49.322;7.218;2023-03-14T04:41:16;96670.16;;;13.78;100.00
18275;BME280;19470;49.322;7.218;2023-03-14T04:43:43;96680.22;;;13.33;100.00
18275;BME280;19470;49.322;7.218;2023-03-14T04:46:11;96678.88;;;13.13;100.00
18275;BME280;19470;49.322;7.218;2023-03-14T04:48:37;96663.25;;;13.60;100.00
18275;BME280;19470;49.322;7.218;2023-03-14T04:51:05;96669.13;;;13.40;100.00
18275;BME280;19470;49.322;7.218;2023-03-14T04:53:31;96662.34;;;13.91;100.00
18275;BME280;19470;49.322;7.218;2023-03-14T04:55:59;96658.25;;;13.67;100.00
18275;BME280;19470;49.322;7.218;2023-03-14T04:58:25;96666.91;;;13.24;100.00
18275;BME280;19470;49.322;7.218;2023-03-14T05:00:52;96640.50;;;13.28;100.00
18275;BME280;19470;49.322;7.218;2023-03-14T05:03:20;96652.59;;;13.51;100.00
18275;BME280;19470;49.322;7.218;2023-03-14T05:05:47;96648.88;;;13.13;100.00
18275;BME280;19470;49.322;7.218;2023-03-14T05:08:13;96652.88;;;13.50;100.00
18275;BME280;19470;49.322;7.218;2023-03-14T05:10:40;96642.59;;;13.57;100.00
18275;BME280;19470;49.322;7.218;2023-03-14T05:13:06;96641.41;;;12.92;100.00
18275;BME280;19470;49.322;7.218;2023-03-14T05:15:33;96625.63;;;13.36;100.00
18275;BME280;19470;49.322;7.218;2023-03-14T05:17:59;96627.25;;;13.54;100.00
18275;BME280;19470;49.322;7.218;2023-03-14T05:20:27;96630.69;;;13.63;100.00
18275;BME280;19470;49.322;7.218;2023-03-14T05:22:54;96621.00;;;13.41;100.00
18275;BME280;19470;49.322;7.218;2023-03-14T05:25:20;96617.41;;;13.06;100.00
18275;BME280;19470;49.322;7.218;2023-03-14T05:27:47;96619.28;;;13.54;100.00
18275;BME280;19470;49.322;7.218;2023-03-14T05:30:14;96625.06;;;13.08;100.00
18275;BME280;19470;49.322;7.218;2023-03-14T05:32:40;96636.78;;;13.46;100.00
18275;BME280;19470;49.322;7.218;2023-03-14T05:35:07;96615.25;;;13.08;100.00
18275;BME280;19470;49.322;7.218;2023-03-14T05:37:35;96621.63;;;13.64;100.00
18275;BME280;19470;49.322;7.218;2023-03-14T05:40:02;96618.94;;;13.38;100.00
18275;BME280;19470;49.322;7.218;2023-03-14T05:42:29;96621.28;;;13.40;100.00
18275;BME280;19470;49.322;7.218;2023-03-14T05:44:56;96614.09;;;13.32;100.00
18275;BME280;19470;49.322;7.218;2023-03-14T05:47:22;96612.75;;;13.20;100.00
18275;BME280;19470;49.322;7.218;2023-03-14T05:49:49;96609.34;;;12.80;100.00
18275;BME280;19470;49.322;7.218;2023-03-14T05:52:16;96613.03;;;13.10;100.00
18275;BME280;19470;49.322;7.218;2023-03-14T05:54:43;96605.88;;;13.19;100.00
18275;BME280;19470;49.322;7.218;2023-03-14T05:57:10;96610.84;;;13.12;100.00
18275;BME280;19470;49.322;7.218;2023-03-14T05:59:36;96590.44;;;13.30;100.00
18275;BME280;19470;49.322;7.218;2023-03-14T06:02:03;96606.34;;;13.13;100.00
18275;BME280;19470;49.322;7.218;2023-03-14T06:04:29;96593.63;;;13.01;100.00
18275;BME280;19470;49.322;7.218;2023-03-14T06:06:56;96596.03;;;13.20;100.00
18275;BME280;19470;49.322;7.218;2023-03-14T06:09:23;96585.22;;;13.16;100.00
18275;BME280;19470;49.322;7.218;2023-03-14T06:11:50;96578.72;;;13.22;100.00
18275;BME280;19470;49.322;7.218;2023-03-14T06:14:17;96579.66;;;13.26;100.00
18275;BME280;19470;49.322;7.218;2023-03-14T06:16:44;96582.03;;;13.54;100.00
18275;BME280;19470;49.322;7.218;2023-03-14T06:19:13;96572.31;;;13.23;100.00
18275;BME280;19470;49.322;7.218;2023-03-14T06:21:39;96569.19;;;12.82;100.00
18275;BME280;19470;49.322;7.218;2023-03-14T06:24:06;96587.75;;;13.13;100.00
18275;BME280;19470;49.322;7.218;2023-03-14T06:26:33;96582.13;;;13.14;100.00
18275;BME280;19470;49.322;7.218;2023-03-14T06:29:01;96579.66;;;12.78;100.00
18275;BME280;19470;49.322;7.218;2023-03-14T06:31:28;96574.09;;;12.57;100.00
18275;BME280;19470;49.322;7.218;2023-03-14T06:33:55;96582.06;;;12.97;100.00
18275;BME280;19470;49.322;7.218;2023-03-14T06:36:22;96572.19;;;13.37;100.00
18275;BME280;19470;49.322;7.218;2023-03-14T06:38:48;96558.34;;;12.69;100.00
18275;BME280;19470;49.322;7.218;2023-03-14T06:41:15;96551.78;;;13.15;100.00
18275;BME280;19470;49.322;7.218;2023-03-14T06:43:41;96572.34;;;12.92;100.00
18275;BME280;19470;49.322;7.218;2023-03-14T06:46:09;96567.50;;;13.43;100.00
18275;BME280;19470;49.322;7.218;2023-03-14T06:48:36;96565.13;;;13.33;100.00
18275;BME280;19470;49.322;7.218;2023-03-14T06:51:02;96567.81;;;13.41;100.00
18275;BME280;19470;49.322;7.218;2023-03-14T06:53:29;96557.31;;;13.27;100.00
18275;BME280;19470;49.322;7.218;2023-03-14T06:55:55;96555.84;;;13.21;100.00
18275;BME280;19470;49.322;7.218;2023-03-14T06:58:22;96569.44;;;13.11;100.00
18275;BME280;19470;49.322;7.218;2023-03-14T07:00:48;96550.28;;;12.83;100.00
18275;BME280;19470;49.322;7.218;2023-03-14T07:03:16;96552.34;;;13.52;100.00
18275;BME280;19470;49.322;7.218;2023-03-14T07:05:43;96548.09;;;13.68;100.00
18275;BME280;19470;49.322;7.218;2023-03-14T07:08:09;96592.19;;;13.35;100.00
18275;BME280;19470;49.322;7.218;2023-03-14T07:10:36;96562.66;;;13.71;100.00
18275;BME280;19470;49.322;7.218;2023-03-14T07:13:03;96555.47;;;13.80;100.00
18275;BME280;19470;49.322;7.218;2023-03-14T07:15:30;96554.97;;;13.87;100.00
18275;BME280;19470;49.322;7.218;2023-03-14T07:17:56;96566.09;;;13.63;100.00
18275;BME280;19470;49.322;7.218;2023-03-14T07:20:24;96563.75;;;13.87;100.00
18275;BME280;19470;49.322;7.218;2023-03-14T07:22:51;96553.19;;;13.21;100.00
18275;BME280;19470;49.322;7.218;2023-03-14T07:25:17;96574.34;;;13.26;100.00
18275;BME280;19470;49.322;7.218;2023-03-14T07:27:44;96568.56;;;13.24;100.00
18275;BME280;19470;49.322;7.218;2023-03-14T07:30:12;96579.41;;;13.89;100.00
18275;BME280;19470;49.322;7.218;2023-03-14T07:32:38;96566.72;;;13.68;100.00
18275;BME280;19470;49.322;7.218;2023-03-14T07:35:06;96580.81;;;13.60;100.00
18275;BME280;19470;49.322;7.218;2023-03-14T07:37:34;96565.75;;;13.29;100.00
18275;BME280;19470;49.322;7.218;2023-03-14T07:40:01;96575.94;;;13.27;100.00
18275;BME280;19470;49.322;7.218;2023-03-14T07:42:30;96587.84;;;13.73;100.00
18275;BME280;19470;49.322;7.218;2023-03-14T07:44:57;96583.16;;;13.70;100.00
18275;BME280;19470;49.322;7.218;2023-03-14T07:47:23;96587.06;;;14.16;100.00
18275;BME280;19470;49.322;7.218;2023-03-14T07:49:50;96579.88;;;13.82;100.00
18275;BME280;19470;49.322;7.218;2023-03-14T07:52:16;96585.34;;;14.12;100.00
18275;BME280;19470;49.322;7.218;2023-03-14T07:54:44;96602.53;;;13.45;100.00
18275;BME280;19470;49.322;7.218;2023-03-14T07:57:11;96598.31;;;13.87;100.00
18275;BME280;19470;49.322;7.218;2023-03-14T07:59:37;96608.47;;;13.42;100.00
18275;BME280;19470;49.322;7.218;2023-03-14T08:02:03;96601.47;;;13.98;100.00
18275;BME280;19470;49.322;7.218;2023-03-14T08:04:35;96584.88;;;14.01;100.00
18275;BME280;19470;49.322;7.218;2023-03-14T08:07:02;96598.16;;;14.18;100.00
18275;BME280;19470;49.322;7.218;2023-03-14T08:09:28;96594.72;;;14.09;100.00
18275;BME280;19470;49.322;7.218;2023-03-14T08:11:56;96597.03;;;14.37;100.00
18275;BME280;19470;49.322;7.218;2023-03-14T08:14:23;96601.00;;;13.61;100.00
18275;BME280;19470;49.322;7.218;2023-03-14T08:16:50;96603.97;;;13.77;100.00
18275;BME280;19470;49.322;7.218;2023-03-14T08:19:16;96599.97;;;14.61;100.00
18275;BME280;19470;49.322;7.218;2023-03-14T08:21:43;96604.09;;;14.24;100.00
18275;BME280;19470;49.322;7.218;2023-03-14T08:24:10;96598.41;;;14.60;100.00
18275;BME280;19470;49.322;7.218;2023-03-14T08:26:36;96609.25;;;15.02;100.00
18275;BME280;19470;49.322;7.218;2023-03-14T08:29:04;96616.63;;;14.23;100.00
18275;BME280;19470;49.322;7.218;2023-03-14T08:31:30;96605.03;;;14.19;100.00
18275;BME280;19470;49.322;7.218;2023-03-14T08:33:58;96611.31;;;13.71;100.00
18275;BME280;19470;49.322;7.218;2023-03-14T08:36:25;96589.88;;;13.50;100.00
18275;BME280;19470;49.322;7.218;2023-03-14T08:38:51;96618.63;;;14.44;100.00
18275;BME280;19470;49.322;7.218;2023-03-14T08:41:18;96629.31;;;14.09;100.00
18275;BME280;19470;49.322;7.218;2023-03-14T08:43:44;96626.94;;;14.25;100.00
18275;BME280;19470;49.322;7.218;2023-03-14T08:46:12;96622.66;;;14.67;100.00
18275;BME280;19470;49.322;7.218;2023-03-14T08:48:38;96616.25;;;14.68;100.00
18275;BME280;19470;49.322;7.218;2023-03-14T08:51:06;96612.84;;;14.59;100.00
18275;BME280;19470;49.322;7.218;2023-03-14T08:53:32;96630.25;;;14.04;100.00
18275;BME280;19470;49.322;7.218;2023-03-14T08:55:59;96622.22;;;14.65;100.00
18275;BME280;19470;49.322;7.218;2023-03-14T08:58:25;96618.97;;;14.33;100.00
18275;BME280;19470;49.322;7.218;2023-03-14T09:00:52;96607.69;;;14.37;100.00
18275;BME280;19470;49.322;7.218;2023-03-14T09:03:20;96621.03;;;13.85;100.00
18275;BME280;19470;49.322;7.218;2023-03-14T09:05:48;96622.78;;;14.79;100.00
18275;BME280;19470;49.322;7.218;2023-03-14T09:08:14;96653.44;;;13.95;100.00
18275;BME280;19470;49.322;7.218;2023-03-14T09:10:41;96631.50;;;13.81;100.00
18275;BME280;19470;49.322;7.218;2023-03-14T09:13:07;96646.06;;;14.18;100.00
18275;BME280;19470;49.322;7.218;2023-03-14T09:15:34;96633.38;;;14.50;100.00
18275;BME280;19470;49.322;7.218;2023-03-14T09:18:00;96620.38;;;14.48;100.00
18275;BME280;19470;49.322;7.218;2023-03-14T09:20:28;96621.44;;;14.56;100.00
18275;BME280;19470;49.322;7.218;2023-03-14T09:22:55;96631.66;;;14.02;100.00
18275;BME280;19470;49.322;7.218;2023-03-14T09:25:21;96619.09;;;14.46;100.00
18275;BME280;19470;49.322;7.218;2023-03-14T09:27:48;96623.66;;;14.37;100.00
18275;BME280;19470;49.322;7.218;2023-03-14T09:30:14;96623.94;;;14.61;100.00
18275;BME280;19470;49.322;7.218;2023-03-14T09:32:41;96630.09;;;14.18;100.00
18275;BME280;19470;49.322;7.218;2023-03-14T09:35:08;96634.97;;;14.07;100.00
18275;BME280;19470;49.322;7.218;2023-03-14T09:37:36;96640.91;;;14.13;100.00
18275;BME280;19470;49.322;7.218;2023-03-14T09:40:03;96647.34;;;14.12;100.00
18275;BME280;19470;49.322;7.218;2023-03-14T09:42:37;96652.19;;;14.19;100.00
18275;BME280;19470;49.322;7.218;2023-03-14T09:45:07;96649.66;;;14.05;100.00
18275;BME280;19470;49.322;7.218;2023-03-14T09:47:36;96652.78;;;14.24;100.00
18275;BME280;19470;49.322;7.218;2023-03-14T09:50:05;96651.06;;;13.76;100.00
18275;BME280;19470;49.322;7.218;2023-03-14T09:52:35;96653.13;;;14.31;100.00
18275;BME280;19470;49.322;7.218;2023-03-14T09:55:06;96668.63;;;13.95;100.00
18275;BME280;19470;49.322;7.218;2023-03-14T09:57:34;96665.47;;;14.10;100.00
18275;BME280;19470;49.322;7.218;2023-03-14T10:00:04;96656.06;;;13.69;100.00
18275;BME280;19470;49.322;7.218;2023-03-14T10:02:38;96663.81;;;13.40;100.00
18275;BME280;19470;49.322;7.218;2023-03-14T10:05:13;96669.03;;;13.62;100.00
18275;BME280;19470;49.322;7.218;2023-03-14T10:07:40;96712.25;;;13.85;100.00
18275;BME280;19470;49.322;7.218;2023-03-14T10:10:11;96759.50;;;13.09;100.00
18275;BME280;19470;49.322;7.218;2023-03-14T10:12:39;96723.72;;;13.37;100.00
18275;BME280;19470;49.322;7.218;2023-03-14T10:15:09;96741.00;;;12.72;100.00
18275;BME280;19470;49.322;7.218;2023-03-14T10:17:42;96760.72;;;12.58;100.00
18275;BME280;19470;49.322;7.218;2023-03-14T10:20:27;96778.72;;;12.24;100.00
18275;BME280;19470;49.322;7.218;2023-03-14T10:22:57;96784.59;;;12.35;100.00
18275;BME280;19470;49.322;7.218;2023-03-14T10:25:28;96792.63;;;12.44;100.00
18275;BME280;19470;49.322;7.218;2023-03-14T10:27:55;96794.47;;;12.07;100.00
18275;BME280;19470;49.322;7.218;2023-03-14T10:30:33;96808.88;;;12.65;100.00
18275;BME280;19470;49.322;7.218;2023-03-14T10:33:08;96848.22;;;11.52;100.00
18275;BME280;19470;49.322;7.218;2023-03-14T10:35:36;96819.97;;;11.62;100.00
18275;BME280;19470;49.322;7.218;2023-03-14T10:38:03;96809.06;;;11.36;100.00
18275;BME280;19470;49.322;7.218;2023-03-14T10:40:33;96841.97;;;11.76;100.00
18275;BME280;19470;49.322;7.218;2023-03-14T10:43:01;96872.06;;;11.99;100.00
18275;BME280;19470;49.322;7.218;2023-03-14T10:45:35;96876.91;;;12.24;100.00
18275;BME280;19470;49.322;7.218;2023-03-14T10:48:21;96904.91;;;11.70;100.00
18275;BME280;19470;49.322;7.218;2023-03-14T10:50:53;96896.88;;;11.75;100.00
18275;BME280;19470;49.322;7.218;2023-03-14T10:53:20;96911.31;;;11.69;100.00
18275;BME280;19470;49.322;7.218;2023-03-14T10:55:48;96919.44;;;12.06;100.00
18275;BME280;19470;49.322;7.218;2023-03-14T10:58:20;96944.91;;;11.74;100.00
18275;BME280;19470;49.322;7.218;2023-03-14T11:01:02;96944.03;;;11.46;100.00
18275;BME280;19470;49.322;7.218;2023-03-14T11:03:32;96956.94;;;11.34;100.00
18275;BME280;19470;49.322;7.218;2023-03-14T11:06:06;96973.22;;;11.27;100.00
18275;BME280;19470;49.322;7.218;2023-03-14T11:08:42;96957.75;;;11.86;100.00
18275;BME280;19470;49.322;7.218;2023-03-14T11:11:18;96982.72;;;11.28;100.00
18275;BME280;19470;49.322;7.218;2023-03-14T11:13:54;97001.34;;;11.04;100.00
18275;BME280;19470;49.322;7.218;2023-03-14T11:16:26;97011.41;;;10.83;100.00
18275;BME280;19470;49.322;7.218;2023-03-14T11:19:06;97029.47;;;10.76;100.00
18275;BME280;19470;49.322;7.218;2023-03-14T11:21:44;97028.25;;;10.92;100.00
18275;BME280;19470;49.322;7.218;2023-03-14T11:24:28;97027.84;;;11.42;100.00
18275;BME280;19470;49.322;7.218;2023-03-14T11:27:04;97014.44;;;11.14;100.00
18275;BME280;19470;49.322;7.218;2023-03-14T11:29:38;97041.69;;;11.20;100.00
18275;BME280;19470;49.322;7.218;2023-03-14T11:32:12;97077.97;;;12.88;97.22
18275;BME280;19470;49.322;7.218;2023-03-14T11:34:43;97043.88;;;14.35;92.81
18275;BME280;19470;49.322;7.218;2023-03-14T11:37:14;97086.25;;;13.41;93.78
18275;BME280;19470;49.322;7.218;2023-03-14T11:39:49;97076.72;;;12.85;92.84
18275;BME280;19470;49.322;7.218;2023-03-14T11:42:21;97070.50;;;12.62;85.46
18275;BME280;19470;49.322;7.218;2023-03-14T11:44:49;97078.19;;;13.33;81.14
18275;BME280;19470;49.322;7.218;2023-03-14T11:47:17;97086.06;;;13.38;77.66
18275;BME280;19470;49.322;7.218;2023-03-14T11:49:50;97085.53;;;12.53;79.99
18275;BME280;19470;49.322;7.218;2023-03-14T11:52:22;97097.19;;;12.85;79.77
18275;BME280;19470;49.322;7.218;2023-03-14T11:54:53;97111.34;;;12.01;78.21
18275;BME280;19470;49.322;7.218;2023-03-14T11:57:23;97130.91;;;12.05;84.49
18275;BME280;19470;49.322;7.218;2023-03-14T11:59:53;97100.75;;;11.82;84.14
18275;BME280;19470;49.322;7.218;2023-03-14T12:02:25;97112.91;;;12.35;82.71
18275;BME280;19470;49.322;7.218;2023-03-14T12:05:10;97173.94;;;12.53;77.62
18275;BME280;19470;49.322;7.218;2023-03-14T12:07:58;97136.81;;;13.50;75.48
18275;BME280;19470;49.322;7.218;2023-03-14T12:10:37;97135.78;;;13.73;66.45
18275;BME280;19470;49.322;7.218;2023-03-14T12:13:07;97177.00;;;13.76;65.97
18275;BME280;19470;49.322;7.218;2023-03-14T12:15:39;97145.59;;;14.00;63.36
18275;BME280;19470;49.322;7.218;2023-03-14T12:18:19;97177.69;;;14.18;61.86
18275;BME280;19470;49.322;7.218;2023-03-14T12:20:51;97172.66;;;13.11;65.81
18275;BME280;19470;49.322;7.218;2023-03-14T12:23:20;97168.53;;;13.05;65.27
18275;BME280;19470;49.322;7.218;2023-03-14T12:25:46;97157.06;;;11.93;62.58
18275;BME280;19470;49.322;7.218;2023-03-14T12:28:19;97170.06;;;12.92;61.85
18275;BME280;19470;49.322;7.218;2023-03-14T12:30:46;97194.69;;;13.12;58.93
18275;BME280;19470;49.322;7.218;2023-03-14T12:33:33;97166.59;;;13.52;60.38
18275;BME280;19470;49.322;7.218;2023-03-14T12:38:57;97201.41;;;13.78;62.43
18275;BME280;19470;49.322;7.218;2023-03-14T12:41:29;97219.25;;;13.77;60.03
18275;BME280;19470;49.322;7.218;2023-03-14T12:50:18;97243.78;;;13.88;60.33
18275;BME280;19470;49.322;7.218;2023-03-14T12:53:01;97251.88;;;13.69;61.91
18275;BME280;19470;49.322;7.218;2023-03-14T12:55:36;97252.53;;;15.28;59.64
18275;BME280;19470;49.322;7.218;2023-03-14T12:58:12;97244.56;;;14.02;60.81
18275;BME280;19470;49.322;7.218;2023-03-14T13:00:42;97268.09;;;12.42;64.01
18275;BME280;19470;49.322;7.218;2023-03-14T13:03:19;97308.00;;;12.89;61.00
18275;BME280;19470;49.322;7.218;2023-03-14T13:05:56;97287.16;;;14.02;56.94
18275;BME280;19470;49.322;7.218;2023-03-14T13:08:34;97275.50;;;12.78;59.74